createdAt,value
2019-03-30T00:02:10.827Z,14.63
2019-03-30T00:04:40.640Z,12.17
2019-03-30T00:07:10.537Z,9.73
2019-03-30T00:09:40.356Z,9.77
2019-03-30T00:12:10.224Z,12.17
2019-03-30T00:14:40.106Z,7.53
2019-03-30T00:17:09.936Z,9.93
2019-03-30T00:19:39.850Z,7.73
2019-03-30T00:22:09.687Z,10.67
2019-03-30T00:24:39.487Z,10.03
2019-03-30T00:27:09.318Z,9.40
2019-03-30T00:29:39.119Z,8.53
2019-03-30T00:32:08.932Z,9.73
2019-03-30T00:34:38.746Z,8.13
2019-03-30T00:37:08.564Z,15.27
2019-03-30T00:39:38.369Z,7.90
2019-03-30T00:42:08.212Z,10.77
2019-03-30T00:44:38.004Z,10.60
2019-03-30T00:47:07.834Z,13.33
2019-03-30T00:49:48.521Z,8.27
2019-03-30T00:52:09.284Z,18.37
2019-03-30T00:54:39.076Z,9.87
2019-03-30T00:57:08.888Z,10.40
2019-03-30T00:59:38.682Z,9.57
2019-03-30T01:02:08.613Z,8.13
2019-03-30T01:04:38.416Z,14.30
2019-03-30T01:07:08.227Z,9.30
2019-03-30T01:09:38.029Z,7.53
2019-03-30T01:12:07.841Z,13.40
2019-03-30T01:14:37.657Z,11.27
2019-03-30T01:17:07.568Z,8.77
2019-03-30T01:19:37.360Z,8.10
2019-03-30T01:22:07.182Z,10.20
2019-03-30T01:24:37.011Z,8.97
2019-03-30T01:27:06.931Z,10.50
2019-03-30T01:29:36.809Z,9.70
2019-03-30T01:32:06.634Z,15.97
2019-03-30T01:34:36.423Z,8.80
2019-03-30T01:37:06.228Z,13.30
2019-03-30T01:39:36.081Z,9.77
2019-03-30T01:42:06.044Z,9.87
2019-03-30T01:44:35.886Z,12.27
2019-03-30T01:47:05.684Z,13.27
2019-03-30T01:49:35.501Z,9.40
2019-03-30T01:52:05.394Z,8.90
2019-03-30T01:54:35.324Z,14.53
2019-03-30T01:57:05.130Z,10.13
2019-03-30T01:59:34.945Z,12.03
2019-03-30T02:02:04.764Z,7.43
2019-03-30T02:04:34.584Z,9.40
2019-03-30T02:07:04.378Z,9.40
2019-03-30T02:09:34.209Z,14.73
2019-03-30T02:12:04.291Z,12.97
2019-03-30T02:14:34.212Z,23.73
2019-03-30T02:17:04.006Z,10.03
2019-03-30T02:19:33.825Z,11.80
2019-03-30T02:22:03.725Z,12.17
2019-03-30T02:24:33.549Z,11.60
2019-03-30T02:27:03.331Z,12.63
2019-03-30T02:29:33.149Z,15.40
2019-03-30T02:32:03.255Z,10.10
2019-03-30T02:34:33.119Z,9.73
2019-03-30T02:37:02.956Z,10.17
2019-03-30T02:39:32.786Z,12.10
2019-03-30T02:42:02.844Z,11.63
2019-03-30T02:44:32.749Z,14.67
2019-03-30T02:47:02.662Z,12.87
2019-03-30T02:49:32.541Z,13.80
2019-03-30T02:52:02.405Z,10.33
2019-03-30T02:54:32.254Z,13.27
2019-03-30T02:57:02.058Z,9.80
2019-03-30T02:59:31.875Z,14.33
2019-03-30T03:02:01.692Z,11.17
2019-03-30T03:04:31.520Z,11.37
2019-03-30T03:07:01.342Z,12.43
2019-03-30T03:09:31.166Z,7.93
2019-03-30T03:12:00.957Z,12.40
2019-03-30T03:14:30.871Z,11.73
2019-03-30T03:17:00.745Z,12.03
2019-03-30T03:19:30.565Z,13.40
2019-03-30T03:22:00.363Z,15.83
2019-03-30T03:24:30.238Z,10.20
2019-03-30T03:27:01.554Z,9.97
2019-03-30T03:29:31.364Z,11.33
2019-03-30T03:32:01.190Z,14.00
2019-03-30T03:34:31.079Z,14.20
2019-03-30T03:37:00.869Z,10.97
2019-03-30T03:39:30.689Z,14.37
2019-03-30T03:42:00.513Z,11.33
2019-03-30T03:44:30.322Z,11.97
2019-03-30T03:47:00.118Z,11.83
2019-03-30T03:49:29.937Z,11.67
2019-03-30T03:52:00.637Z,17.03
2019-03-30T03:54:31.757Z,22.03
2019-03-30T03:57:03.286Z,17.40
2019-03-30T03:59:35.524Z,17.57
2019-03-30T04:02:06.076Z,17.20
2019-03-30T04:04:38.945Z,12.07
2019-03-30T04:07:09.093Z,13.07
2019-03-30T04:09:40.979Z,11.90
2019-03-30T04:12:13.195Z,17.50
2019-03-30T04:14:47.003Z,12.30
2019-03-30T04:17:16.987Z,16.33
2019-03-30T04:19:46.804Z,15.17
2019-03-30T04:22:16.639Z,15.30
2019-03-30T04:24:46.842Z,15.00
2019-03-30T04:27:16.639Z,21.10
2019-03-30T04:29:46.456Z,14.10
2019-03-30T04:32:16.264Z,23.97
2019-03-30T04:34:46.186Z,14.43
2019-03-30T04:37:16.092Z,11.10
2019-03-30T04:39:45.920Z,15.83
2019-03-30T04:42:15.748Z,14.77
2019-03-30T04:44:45.640Z,15.93
2019-03-30T04:47:15.444Z,14.30
2019-03-30T04:49:45.249Z,12.70
2019-03-30T04:52:15.042Z,12.00
2019-03-30T04:54:44.852Z,14.60
2019-03-30T04:57:14.655Z,21.13
2019-03-30T04:59:44.492Z,13.43
2019-03-30T05:02:14.318Z,15.07
2019-03-30T05:04:44.158Z,15.80
2019-03-30T05:07:14.041Z,12.13
2019-03-30T05:09:43.839Z,11.90
2019-03-30T05:12:13.638Z,16.50
2019-03-30T05:14:43.457Z,12.17
2019-03-30T05:17:13.255Z,14.17
2019-03-30T05:19:45.989Z,13.87
2019-03-30T05:22:16.708Z,13.47
2019-03-30T05:24:46.841Z,15.50
2019-03-30T05:27:16.670Z,10.77
2019-03-30T05:29:46.495Z,16.40
2019-03-30T05:32:16.301Z,13.43
2019-03-30T05:34:46.116Z,13.00
2019-03-30T05:37:15.913Z,15.87
2019-03-30T05:39:46.432Z,17.07
2019-03-30T05:42:16.235Z,13.13
2019-03-30T05:44:46.098Z,12.90
2019-03-30T05:47:15.908Z,14.73
2019-03-30T05:49:45.742Z,13.47
2019-03-30T05:52:26.319Z,12.70
2019-03-30T05:54:47.477Z,15.23
2019-03-30T05:57:17.277Z,10.03
2019-03-30T05:59:47.192Z,12.30
2019-03-30T06:02:17.013Z,14.57
2019-03-30T06:04:46.826Z,13.40
2019-03-30T06:07:16.647Z,14.90
2019-03-30T06:09:46.543Z,11.20
2019-03-30T06:12:16.339Z,13.80
2019-03-30T06:14:46.158Z,15.00
2019-03-30T06:17:16.068Z,11.90
2019-03-30T06:19:45.872Z,15.30
2019-03-30T06:22:15.723Z,12.90
2019-03-30T06:24:45.544Z,9.97
2019-03-30T06:27:15.351Z,12.00
2019-03-30T06:29:46.727Z,13.90
2019-03-30T06:32:16.589Z,17.27
2019-03-30T06:34:46.425Z,14.20
2019-03-30T06:37:16.292Z,14.23
2019-03-30T06:39:46.102Z,10.40
2019-03-30T06:42:15.983Z,30.47
2019-03-30T06:44:45.804Z,12.20
2019-03-30T06:47:15.596Z,15.83
2019-03-30T06:49:45.415Z,12.90
2019-03-30T06:52:15.326Z,13.47
2019-03-30T06:54:45.146Z,16.27
2019-03-30T06:57:14.954Z,14.37
2019-03-30T06:59:44.773Z,12.50
2019-03-30T07:02:15.203Z,23.47
2019-03-30T07:04:45.065Z,11.63
2019-03-30T07:07:15.677Z,11.93
2019-03-30T07:09:48.076Z,14.63
2019-03-30T07:12:19.977Z,14.73
2019-03-30T07:14:52.086Z,16.63
2019-03-30T07:17:22.564Z,13.87
2019-03-30T07:19:54.352Z,13.00
2019-03-30T07:22:24.162Z,16.27
2019-03-30T07:24:53.984Z,19.77
2019-03-30T07:27:23.836Z,14.10
2019-03-30T07:29:53.681Z,18.00
2019-03-30T07:32:24.041Z,16.23
2019-03-30T07:34:53.912Z,14.67
2019-03-30T07:37:23.721Z,17.83
2019-03-30T07:39:53.544Z,15.33
2019-03-30T07:42:23.348Z,15.10
2019-03-30T07:44:53.185Z,17.40
2019-03-30T07:47:23.012Z,14.00
2019-03-30T07:49:52.834Z,15.00
2019-03-30T07:52:22.652Z,17.27
2019-03-30T07:54:52.502Z,21.73
2019-03-30T07:57:22.310Z,15.60
2019-03-30T07:59:52.153Z,13.40
2019-03-30T08:02:22.083Z,23.40
2019-03-30T08:04:51.935Z,15.77
2019-03-30T08:07:21.975Z,22.10
2019-03-30T08:09:52.006Z,19.40
2019-03-30T08:12:21.836Z,17.20
2019-03-30T08:14:51.653Z,15.03
2019-03-30T08:17:21.828Z,14.20
2019-03-30T08:19:51.669Z,16.40
2019-03-30T08:22:21.508Z,16.47
2019-03-30T08:24:51.421Z,16.40
2019-03-30T08:27:21.275Z,13.47
2019-03-30T08:29:51.085Z,19.70
2019-03-30T08:32:20.910Z,17.03
2019-03-30T08:34:50.700Z,23.67
2019-03-30T08:37:20.600Z,17.87
2019-03-30T08:39:50.416Z,23.53
2019-03-30T08:42:20.352Z,20.23
2019-03-30T08:44:50.311Z,23.07
2019-03-30T08:47:20.212Z,15.50
2019-03-30T08:49:50.013Z,29.20
2019-03-30T08:52:19.838Z,14.50
2019-03-30T08:54:49.844Z,14.00
2019-03-30T08:57:19.664Z,15.40
2019-03-30T08:59:49.496Z,17.07
2019-03-30T09:02:19.452Z,24.57
2019-03-30T09:04:49.286Z,19.90
2019-03-30T09:07:19.132Z,14.90
2019-03-30T09:09:49.035Z,17.90
2019-03-30T09:12:18.865Z,21.63
2019-03-30T09:14:48.685Z,18.30
2019-03-30T09:17:18.551Z,17.47
2019-03-30T09:19:48.509Z,17.97
2019-03-30T09:22:18.320Z,17.93
2019-03-30T09:24:48.161Z,16.53
2019-03-30T09:27:17.997Z,19.30
2019-03-30T09:29:47.827Z,15.80
2019-03-30T09:32:17.659Z,16.27
2019-03-30T09:34:47.497Z,19.47
2019-03-30T09:37:17.313Z,19.30
2019-03-30T09:39:47.174Z,14.20
2019-03-30T09:42:17.071Z,19.67
2019-03-30T09:44:46.889Z,19.77
2019-03-30T09:47:16.730Z,18.47
2019-03-30T09:49:46.571Z,13.90
2019-03-30T09:52:16.392Z,10.00
2019-03-30T09:54:46.257Z,10.97
2019-03-30T09:57:16.151Z,10.03
2019-03-30T09:59:45.958Z,11.10
2019-03-30T10:02:15.811Z,12.83
2019-03-30T10:04:45.705Z,13.30
2019-03-30T10:07:15.537Z,12.27
2019-03-30T10:09:47.317Z,15.43
2019-03-30T10:12:16.906Z,13.73
2019-03-30T10:14:46.707Z,14.60
2019-03-30T10:17:16.529Z,13.73
2019-03-30T10:19:53.083Z,12.20
2019-03-30T10:22:17.896Z,10.63
2019-03-30T10:24:47.693Z,9.93
2019-03-30T10:27:17.503Z,12.83
2019-03-30T10:29:47.307Z,10.90
2019-03-30T10:32:17.157Z,12.53
2019-03-30T10:34:46.949Z,15.27
2019-03-30T10:37:16.802Z,11.93
2019-03-30T10:39:45.783Z,10.23
2019-03-30T10:42:14.736Z,13.90
2019-03-30T10:44:44.585Z,9.07
2019-03-30T10:47:14.432Z,9.37
2019-03-30T10:49:44.315Z,11.57
2019-03-30T10:52:14.427Z,10.47
2019-03-30T10:54:52.456Z,8.97
2019-03-30T10:57:15.775Z,14.67
2019-03-30T10:59:45.572Z,10.20
2019-03-30T11:02:15.416Z,15.50
2019-03-30T11:04:45.362Z,13.50
2019-03-30T11:07:15.255Z,15.33
2019-03-30T11:09:45.061Z,10.80
2019-03-30T11:12:14.889Z,15.97
2019-03-30T11:14:44.797Z,14.10
2019-03-30T11:17:14.979Z,16.23
2019-03-30T11:19:44.815Z,12.17
2019-03-30T11:22:14.672Z,16.10
2019-03-30T11:24:44.530Z,9.50
2019-03-30T11:27:14.365Z,9.70
2019-03-30T11:29:44.194Z,12.30
2019-03-30T11:32:14.029Z,10.43
2019-03-30T11:34:43.860Z,10.30
2019-03-30T11:37:13.705Z,12.33
2019-03-30T11:39:43.565Z,12.30
2019-03-30T11:42:14.289Z,13.97
2019-03-30T11:44:44.107Z,9.43
2019-03-30T11:47:14.004Z,10.47
2019-03-30T11:49:45.199Z,17.83
2019-03-30T11:52:15.027Z,11.30
2019-03-30T11:54:44.964Z,9.87
2019-03-30T11:57:14.787Z,10.37
2019-03-30T11:59:44.594Z,9.80
2019-03-30T12:02:27.334Z,13.20
2019-03-30T12:04:45.971Z,10.20
2019-03-30T12:07:15.801Z,21.67
2019-03-30T12:09:45.674Z,17.83
2019-03-30T12:12:15.509Z,11.30
2019-03-30T12:14:45.288Z,9.17
2019-03-30T12:17:15.116Z,10.67
2019-03-30T12:19:44.916Z,8.87
2019-03-30T12:22:14.806Z,9.30
2019-03-30T12:24:44.613Z,24.13
2019-03-30T12:27:14.485Z,12.80
2019-03-30T12:29:44.772Z,9.20
2019-03-30T12:32:14.707Z,11.97
2019-03-30T12:34:44.523Z,13.70
2019-03-30T12:37:14.616Z,15.20
2019-03-30T12:39:44.426Z,12.27
2019-03-30T12:42:14.315Z,12.83
2019-03-30T12:44:44.120Z,10.10
2019-03-30T12:47:13.972Z,14.33
2019-03-30T12:49:45.219Z,12.17
2019-03-30T12:52:15.399Z,9.27
2019-03-30T12:54:45.197Z,8.73
2019-03-30T12:57:15.046Z,14.13
2019-03-30T12:59:44.860Z,12.87
2019-03-30T13:02:14.712Z,14.57
2019-03-30T13:04:44.609Z,10.10
2019-03-30T13:07:14.437Z,10.60
2019-03-30T13:09:44.395Z,6.53
2019-03-30T13:12:14.242Z,12.40
2019-03-30T13:14:44.047Z,9.73
2019-03-30T13:17:13.881Z,13.03
2019-03-30T13:19:43.681Z,9.13
2019-03-30T13:22:13.510Z,11.67
2019-03-30T13:24:43.392Z,11.77
2019-03-30T13:27:13.238Z,10.47
2019-03-30T13:29:43.088Z,12.20
2019-03-30T13:32:12.949Z,11.53
2019-03-30T13:34:42.756Z,11.00
2019-03-30T13:37:17.850Z,16.23
2019-03-30T13:39:47.681Z,13.07
2019-03-30T13:42:17.612Z,13.57
2019-03-30T13:44:49.563Z,11.40
2019-03-30T13:47:19.526Z,13.87
2019-03-30T13:49:49.373Z,11.13
2019-03-30T13:52:19.196Z,13.10
2019-03-30T13:54:49.008Z,8.00
2019-03-30T13:57:18.834Z,12.70
2019-03-30T13:59:48.708Z,11.83
2019-03-30T14:02:18.563Z,7.43
2019-03-30T14:04:48.535Z,16.50
2019-03-30T14:07:18.387Z,10.30
2019-03-30T14:09:48.277Z,11.50
2019-03-30T14:12:18.168Z,12.20
2019-03-30T14:14:50.165Z,11.30
2019-03-30T14:17:20.399Z,10.43
2019-03-30T14:19:50.297Z,8.93
2019-03-30T14:22:20.206Z,6.70
2019-03-30T14:24:50.413Z,12.23
2019-03-30T14:27:20.404Z,8.03
2019-03-30T14:29:50.234Z,7.90
2019-03-30T14:32:20.162Z,12.83
2019-03-30T14:34:50.010Z,12.30
2019-03-30T14:37:19.914Z,11.20
2019-03-30T14:39:49.726Z,9.20
2019-03-30T14:42:19.581Z,10.10
2019-03-30T14:44:49.392Z,15.77
2019-03-30T14:47:19.228Z,15.87
2019-03-30T14:49:49.057Z,11.37
2019-03-30T14:52:18.975Z,10.90
2019-03-30T14:54:53.129Z,15.63
2019-03-30T14:57:20.350Z,28.13
2019-03-30T14:59:50.146Z,17.97
2019-03-30T15:02:19.994Z,13.93
2019-03-30T15:04:49.775Z,12.90
2019-03-30T15:07:19.625Z,21.93
2019-03-30T15:09:49.444Z,17.13
2019-03-30T15:12:19.330Z,29.00
2019-03-30T15:14:49.212Z,20.87
2019-03-30T15:17:19.036Z,16.50
2019-03-30T15:19:48.849Z,24.47
2019-03-30T15:22:18.687Z,19.53
2019-03-30T15:24:48.522Z,16.00
2019-03-30T15:27:18.364Z,25.53
2019-03-30T15:29:48.194Z,20.23
2019-03-30T15:32:17.209Z,34.90
2019-03-30T15:34:47.021Z,32.93
2019-03-30T15:37:16.866Z,20.13
2019-03-30T15:39:46.672Z,23.90
2019-03-30T15:42:16.488Z,26.60
2019-03-30T15:44:46.318Z,25.17
2019-03-30T15:47:16.117Z,20.10
2019-03-30T15:49:46.169Z,16.57
2019-03-30T15:52:15.993Z,16.43
2019-03-30T15:54:45.817Z,20.90
2019-03-30T15:57:15.620Z,15.30
2019-03-30T15:59:45.455Z,22.27
2019-03-30T16:02:15.296Z,16.33
2019-03-30T16:04:45.165Z,12.67
2019-03-30T16:07:15.062Z,16.50
2019-03-30T16:09:44.903Z,19.90
2019-03-30T16:12:14.729Z,18.13
2019-03-30T16:14:44.722Z,26.60
2019-03-30T16:17:15.040Z,20.90
2019-03-30T16:19:45.026Z,16.80
2019-03-30T16:22:14.850Z,15.03
2019-03-30T16:24:44.664Z,16.20
2019-03-30T16:27:27.814Z,19.17
2019-03-30T16:29:46.022Z,15.10
2019-03-30T16:32:15.849Z,31.07
2019-03-30T16:34:45.755Z,21.87
2019-03-30T16:37:15.572Z,17.87
2019-03-30T16:39:45.395Z,16.83
2019-03-30T16:42:15.201Z,24.23
2019-03-30T16:44:45.049Z,22.30
2019-03-30T16:47:14.966Z,25.17
2019-03-30T16:49:44.801Z,18.53
2019-03-30T16:52:14.643Z,25.07
2019-03-30T16:54:44.633Z,24.67
2019-03-30T16:57:14.458Z,31.33
2019-03-30T16:59:44.286Z,30.37
2019-03-30T17:02:14.196Z,20.67
2019-03-30T17:04:44.101Z,19.63
2019-03-30T17:07:13.954Z,20.50
2019-03-30T17:09:43.784Z,19.97
2019-03-30T17:12:13.590Z,21.13
2019-03-30T17:14:43.423Z,31.20
2019-03-30T17:17:13.233Z,23.50
2019-03-30T17:19:43.080Z,17.30
2019-03-30T17:22:12.888Z,22.63
2019-03-30T17:24:42.733Z,20.67
2019-03-30T17:27:12.539Z,28.70
2019-03-30T17:29:42.436Z,23.60
2019-03-30T17:32:12.264Z,20.37
2019-03-30T17:34:42.717Z,20.43
2019-03-30T17:37:14.415Z,25.03
2019-03-30T17:39:44.164Z,26.60
2019-03-30T17:42:14.005Z,23.17
2019-03-30T17:44:43.836Z,29.57
2019-03-30T17:47:13.632Z,25.67
2019-03-30T17:49:43.761Z,28.17
2019-03-30T17:52:13.843Z,29.37
2019-03-30T17:54:43.713Z,21.97
2019-03-30T17:57:17.167Z,24.67
2019-03-30T17:59:45.114Z,19.93
2019-03-30T18:02:14.957Z,19.33
2019-03-30T18:04:44.820Z,29.70
2019-03-30T18:07:14.669Z,33.23
2019-03-30T18:09:44.563Z,26.43
2019-03-30T18:12:14.517Z,26.97
2019-03-30T18:14:44.484Z,24.87
2019-03-30T18:17:14.331Z,25.00
2019-03-30T18:19:44.267Z,27.73
2019-03-30T18:22:14.145Z,26.80
2019-03-30T18:24:43.993Z,36.60
2019-03-30T18:27:13.879Z,28.47
2019-03-30T18:29:43.999Z,26.20
2019-03-30T18:32:14.270Z,38.37
2019-03-30T18:34:44.925Z,28.13
2019-03-30T18:37:14.917Z,29.90
2019-03-30T18:39:44.912Z,30.17
2019-03-30T18:42:14.712Z,32.60
2019-03-30T18:44:45.873Z,36.40
2019-03-30T18:47:15.837Z,34.33
2019-03-30T18:49:45.804Z,26.83
2019-03-30T18:52:16.466Z,33.47
2019-03-30T18:54:45.519Z,28.60
2019-03-30T18:57:15.317Z,30.73
2019-03-30T18:59:47.463Z,23.73
2019-03-30T19:02:19.200Z,36.00
2019-03-30T19:04:48.860Z,37.73
2019-03-30T19:07:18.678Z,51.97
2019-03-30T19:09:48.490Z,33.60
2019-03-30T19:12:18.294Z,32.80
2019-03-30T19:14:48.182Z,31.53
2019-03-30T19:17:18.065Z,37.97
2019-03-30T19:19:50.090Z,39.57
2019-03-30T19:22:19.460Z,37.43
2019-03-30T19:24:49.884Z,44.93
2019-03-30T19:27:19.687Z,37.63
2019-03-30T19:29:49.536Z,46.53
2019-03-30T19:32:19.382Z,44.43
2019-03-30T19:34:49.212Z,44.50
2019-03-30T19:37:19.034Z,47.00
2019-03-30T19:39:48.861Z,46.03
2019-03-30T19:42:18.655Z,48.03
2019-03-30T19:44:48.473Z,62.10
2019-03-30T19:47:18.288Z,51.37
2019-03-30T19:49:48.298Z,55.37
2019-03-30T19:52:18.154Z,50.10
2019-03-30T19:54:48.040Z,55.03
2019-03-30T19:57:17.898Z,65.87
2019-03-30T19:59:47.785Z,53.43
2019-03-30T20:02:17.733Z,48.70
2019-03-30T20:04:47.588Z,62.67
2019-03-30T20:07:17.421Z,61.90
2019-03-30T20:09:47.353Z,59.07
2019-03-30T20:12:17.246Z,62.70
2019-03-30T20:14:47.177Z,44.03
2019-03-30T20:17:16.990Z,38.90
2019-03-30T20:19:46.920Z,40.03
2019-03-30T20:22:16.753Z,42.60
2019-03-30T20:24:46.757Z,40.97
2019-03-30T20:27:16.601Z,47.67
2019-03-30T20:29:46.521Z,38.23
2019-03-30T20:32:16.385Z,37.13
2019-03-30T20:34:46.388Z,39.30
2019-03-30T20:37:16.315Z,39.57
2019-03-30T20:39:46.185Z,43.70
2019-03-30T20:42:16.150Z,38.43
2019-03-30T20:44:46.024Z,38.70
2019-03-30T20:47:15.872Z,56.53
2019-03-30T20:49:45.807Z,46.33
2019-03-30T20:52:15.638Z,59.90
2019-03-30T20:54:45.547Z,48.43
2019-03-30T20:57:15.365Z,52.27
2019-03-30T20:59:45.347Z,56.17
2019-03-30T21:02:15.393Z,67.67
2019-03-30T21:04:45.319Z,57.27
2019-03-30T21:07:15.210Z,53.70
2019-03-30T21:09:45.024Z,43.50
2019-03-30T21:12:14.928Z,39.27
2019-03-30T21:14:44.844Z,44.17
2019-03-30T21:17:14.842Z,46.90
2019-03-30T21:19:44.710Z,35.30
2019-03-30T21:22:14.536Z,57.53
2019-03-30T21:24:44.731Z,43.57
2019-03-30T21:27:14.562Z,37.60
2019-03-30T21:29:54.446Z,38.73
2019-03-30T21:32:16.031Z,40.10
2019-03-30T21:34:45.928Z,48.80
2019-03-30T21:37:15.767Z,48.10
2019-03-30T21:39:45.597Z,36.73
2019-03-30T21:42:15.453Z,42.40
2019-03-30T21:44:45.319Z,42.00
2019-03-30T21:47:15.185Z,46.93
2019-03-30T21:49:45.033Z,54.70
2019-03-30T21:52:15.001Z,46.80
2019-03-30T21:54:44.885Z,41.67
2019-03-30T21:57:14.722Z,41.10
2019-03-30T21:59:44.615Z,52.60
2019-03-30T22:02:14.439Z,47.87
2019-03-30T22:04:44.323Z,42.07
2019-03-30T22:07:14.257Z,31.13
2019-03-30T22:09:44.095Z,37.70
2019-03-30T22:12:14.040Z,38.83
2019-03-30T22:14:43.901Z,53.43
2019-03-30T22:17:13.711Z,44.23
2019-03-30T22:19:43.556Z,50.60
2019-03-30T22:22:13.390Z,46.50
2019-03-30T22:24:43.242Z,68.60
2019-03-30T22:27:13.161Z,50.60
2019-03-30T22:29:42.967Z,48.33
2019-03-30T22:32:12.825Z,35.60
2019-03-30T22:34:42.703Z,43.40
2019-03-30T22:37:12.529Z,40.90
2019-03-30T22:39:42.431Z,43.43
2019-03-30T22:42:12.340Z,43.00
2019-03-30T22:44:42.280Z,40.20
2019-03-30T22:47:12.270Z,51.47
2019-03-30T22:49:42.254Z,44.07
2019-03-30T22:52:12.098Z,40.97
2019-03-30T22:54:42.030Z,38.57
2019-03-30T22:57:12.040Z,35.37
2019-03-30T22:59:41.951Z,47.07
2019-03-30T23:02:12.004Z,44.23
2019-03-30T23:04:41.813Z,50.73
2019-03-30T23:07:11.644Z,54.07
2019-03-30T23:09:41.526Z,42.27
2019-03-30T23:12:11.357Z,53.80
2019-03-30T23:14:41.696Z,38.37
2019-03-30T23:17:11.638Z,44.70
2019-03-30T23:19:41.499Z,40.83
2019-03-30T23:22:11.366Z,39.27
2019-03-30T23:24:41.274Z,51.63
2019-03-30T23:27:11.093Z,40.20
2019-03-30T23:29:40.944Z,47.43
2019-03-30T23:32:10.750Z,52.00
2019-03-30T23:34:40.560Z,43.50
2019-03-30T23:37:10.402Z,43.13
2019-03-30T23:39:40.192Z,52.83
2019-03-30T23:42:10.034Z,41.73
2019-03-30T23:44:39.833Z,44.17
2019-03-30T23:47:09.636Z,37.33
2019-03-30T23:49:39.507Z,44.87
2019-03-30T23:52:09.305Z,42.63
2019-03-30T23:54:39.138Z,39.37
2019-03-30T23:57:08.976Z,56.20
2019-03-30T23:59:38.801Z,37.40
